createdAt,value
2022-12-14T00:00:59.890Z,100936.11
2022-12-14T00:02:01.287Z,100929.83
2022-12-14T00:03:02.926Z,100934.05
2022-12-14T00:04:04.601Z,100934.98
2022-12-14T00:05:07.057Z,100936.59
2022-12-14T00:06:09.711Z,100934.93
2022-12-14T00:07:11.092Z,100935.70
2022-12-14T00:08:13.655Z,100935.45
2022-12-14T00:09:15.227Z,100930.96
2022-12-14T00:10:16.630Z,100932.69
2022-12-14T00:11:28.085Z,100934.38
2022-12-14T00:12:29.440Z,100932.58
2022-12-14T00:13:30.763Z,100933.45
2022-12-14T00:14:32.191Z,100930.15
2022-12-14T00:15:35.316Z,100933.10
2022-12-14T00:16:36.754Z,100930.21
2022-12-14T00:17:39.116Z,100929.42
2022-12-14T00:18:40.906Z,100930.30
2022-12-14T00:19:42.538Z,100932.27
2022-12-14T00:20:44.338Z,100932.33
2022-12-14T00:21:45.907Z,100933.55
2022-12-14T00:22:47.340Z,100931.42
2022-12-14T00:23:52.262Z,100937.36
2022-12-14T00:24:53.794Z,100935.59
2022-12-14T00:25:55.424Z,100941.98
2022-12-14T00:26:57.269Z,100942.08
2022-12-14T00:27:58.660Z,100942.09
2022-12-14T00:29:01.039Z,100942.11
2022-12-14T00:30:03.427Z,100945.74
2022-12-14T00:31:05.108Z,100946.08
2022-12-14T00:32:06.556Z,100948.99
2022-12-14T00:33:08.036Z,100947.35
2022-12-14T00:34:09.444Z,100952.08
2022-12-14T00:35:12.165Z,100950.69
2022-12-14T00:36:14.004Z,100958.31
2022-12-14T00:37:15.520Z,100954.95
2022-12-14T00:38:17.448Z,100961.57
2022-12-14T00:39:18.802Z,100961.31
2022-12-14T00:40:20.407Z,100965.45
2022-12-14T00:41:21.943Z,100966.14
2022-12-14T00:42:23.483Z,100964.02
2022-12-14T00:43:25.165Z,100966.98
2022-12-14T00:44:26.604Z,100967.50
2022-12-14T00:45:28.098Z,100962.70
2022-12-14T00:46:29.709Z,100959.36
2022-12-14T00:47:33.875Z,100959.27
2022-12-14T00:48:39.426Z,100957.77
2022-12-14T00:49:41.451Z,100961.48
2022-12-14T00:50:43.995Z,100959.67
2022-12-14T00:51:50.362Z,100954.33
2022-12-14T00:52:51.850Z,100957.19
2022-12-14T00:53:53.290Z,100952.35
2022-12-14T00:54:54.804Z,100954.57
2022-12-14T00:55:56.314Z,100955.02
2022-12-14T00:56:57.856Z,100956.34
2022-12-14T00:57:59.352Z,100955.69
2022-12-14T00:59:00.738Z,100957.71
2022-12-14T01:00:02.473Z,100957.59
2022-12-14T01:01:09.218Z,100957.63
2022-12-14T01:02:10.736Z,100956.49
2022-12-14T01:03:12.700Z,100957.08
2022-12-14T01:04:17.041Z,100956.45
2022-12-14T01:05:18.544Z,100960.70
2022-12-14T01:06:21.775Z,100957.24
2022-12-14T01:07:23.198Z,100955.59
2022-12-14T01:08:24.749Z,100951.46
2022-12-14T01:09:26.435Z,100954.33
2022-12-14T01:10:27.976Z,100948.05
2022-12-14T01:11:29.550Z,100950.13
2022-12-14T01:12:31.069Z,100950.91
2022-12-14T01:13:32.511Z,100953.33
2022-12-14T01:14:35.902Z,100952.71
2022-12-14T01:15:37.383Z,100955.67
2022-12-14T01:16:39.046Z,100951.38
2022-12-14T01:17:40.393Z,100948.57
2022-12-14T01:18:42.574Z,100949.54
2022-12-14T01:19:43.999Z,100946.93
2022-12-14T01:20:50.491Z,100945.95
2022-12-14T01:21:52.816Z,100949.98
2022-12-14T01:22:57.746Z,100946.08
2022-12-14T01:24:00.874Z,100945.44
2022-12-14T01:25:02.762Z,100944.86
2022-12-14T01:26:04.252Z,100946.72
2022-12-14T01:27:05.754Z,100944.52
2022-12-14T01:28:07.207Z,100949.10
2022-12-14T01:29:09.846Z,100946.70
2022-12-14T01:30:11.477Z,100945.09
2022-12-14T01:31:17.822Z,100942.73
2022-12-14T01:32:19.750Z,100942.30
2022-12-14T01:33:21.306Z,100942.73
2022-12-14T01:34:22.709Z,100944.00
2022-12-14T01:35:24.223Z,100945.84
2022-12-14T01:36:27.049Z,100943.91
2022-12-14T01:37:28.626Z,100941.85
2022-12-14T01:38:30.041Z,100938.46
2022-12-14T01:39:31.488Z,100940.77
2022-12-14T01:40:32.879Z,100941.73
2022-12-14T01:41:38.857Z,100940.55
2022-12-14T01:42:40.555Z,100936.38
2022-12-14T01:43:46.463Z,100938.06
2022-12-14T01:44:55.227Z,100941.08
2022-12-14T01:45:57.006Z,100943.52
2022-12-14T01:46:59.149Z,100940.75
2022-12-14T01:48:02.479Z,100936.30
2022-12-14T01:49:15.761Z,100939.05
2022-12-14T01:50:17.470Z,100937.49
2022-12-14T01:51:18.920Z,100932.30
2022-12-14T01:52:40.223Z,100931.27
2022-12-14T01:53:41.969Z,100925.84
2022-12-14T01:54:49.945Z,100930.16
2022-12-14T01:55:52.991Z,100926.92
2022-12-14T01:56:55.006Z,100926.60
2022-12-14T01:58:02.771Z,100926.98
2022-12-14T01:59:07.332Z,100926.71
2022-12-14T02:00:11.954Z,100927.64
2022-12-14T02:01:14.443Z,100925.40
2022-12-14T02:02:16.906Z,100928.61
2022-12-14T02:03:31.324Z,100929.72
2022-12-14T02:04:36.629Z,100928.52
2022-12-14T02:05:42.798Z,100923.64
2022-12-14T02:06:46.010Z,100924.98
2022-12-14T02:07:49.204Z,100924.88
2022-12-14T02:08:52.048Z,100928.27
2022-12-14T02:09:56.293Z,100927.30
2022-12-14T02:10:58.171Z,100927.54
2022-12-14T02:12:19.890Z,100926.63
2022-12-14T02:13:38.343Z,100923.05
2022-12-14T02:14:41.182Z,100923.77
2022-12-14T02:15:43.425Z,100923.05
2022-12-14T02:16:44.967Z,100922.27
2022-12-14T02:17:46.571Z,100925.02
2022-12-14T02:18:47.928Z,100925.48
2022-12-14T02:19:49.894Z,100923.49
2022-12-14T02:20:58.751Z,100919.55
2022-12-14T02:22:17.421Z,100917.73
2022-12-14T02:23:31.019Z,100920.31
2022-12-14T02:24:44.767Z,100916.29
2022-12-14T02:25:56.364Z,100915.89
2022-12-14T02:27:14.794Z,100920.75
2022-12-14T02:28:35.417Z,100921.26
2022-12-14T02:29:49.919Z,100922.11
2022-12-14T02:32:18.452Z,100925.17
2022-12-14T02:33:22.632Z,100928.96
2022-12-14T02:34:31.659Z,100923.99
2022-12-14T02:35:42.305Z,100922.10
2022-12-14T02:36:59.661Z,100922.77
2022-12-14T02:38:16.970Z,100922.69
2022-12-14T02:39:32.593Z,100923.92
2022-12-14T02:41:03.235Z,100926.20
2022-12-14T02:42:13.129Z,100930.43
2022-12-14T02:43:14.496Z,100927.21
2022-12-14T02:44:18.400Z,100926.30
2022-12-14T02:45:38.869Z,100929.92
2022-12-14T02:46:50.044Z,100931.08
2022-12-14T02:47:54.664Z,100935.34
2022-12-14T02:49:15.086Z,100935.98
2022-12-14T02:50:22.972Z,100934.41
2022-12-14T02:51:40.245Z,100935.06
2022-12-14T02:53:00.383Z,100932.81
2022-12-14T02:54:04.473Z,100932.66
2022-12-14T02:55:16.054Z,100934.89
2022-12-14T02:56:22.147Z,100933.48
2022-12-14T02:57:43.890Z,100932.23
2022-12-14T02:58:50.372Z,100934.17
2022-12-14T02:59:53.952Z,100931.86
2022-12-14T03:00:56.027Z,100935.27
2022-12-14T03:02:00.198Z,100931.50
2022-12-14T03:03:03.855Z,100933.65
2022-12-14T03:04:06.046Z,100926.29
2022-12-14T03:05:07.611Z,100929.52
2022-12-14T03:06:17.045Z,100929.95
2022-12-14T03:07:26.172Z,100925.26
2022-12-14T03:08:29.843Z,100924.41
2022-12-14T03:09:31.894Z,100920.30
2022-12-14T03:10:42.116Z,100919.65
2022-12-14T03:12:02.129Z,100917.23
2022-12-14T03:13:15.956Z,100912.30
2022-12-14T03:14:24.966Z,100915.16
2022-12-14T03:15:27.647Z,100911.03
2022-12-14T03:16:30.573Z,100910.77
2022-12-14T03:17:33.404Z,100907.52
2022-12-14T03:18:37.138Z,100906.20
2022-12-14T03:19:45.594Z,100906.29
2022-12-14T03:20:51.731Z,100906.65
2022-12-14T03:21:55.605Z,100902.52
2022-12-14T03:22:59.213Z,100901.84
2022-12-14T03:24:02.604Z,100900.17
2022-12-14T03:25:24.866Z,100901.64
2022-12-14T03:26:26.307Z,100907.86
2022-12-14T03:27:32.344Z,100905.48
2022-12-14T03:28:44.911Z,100913.00
2022-12-14T03:29:53.026Z,100911.41
2022-12-14T03:31:00.973Z,100912.94
2022-12-14T03:32:06.373Z,100910.80
2022-12-14T03:33:11.690Z,100909.31
2022-12-14T03:34:14.905Z,100911.99
2022-12-14T03:35:32.190Z,100916.58
2022-12-14T03:36:56.169Z,100917.74
2022-12-14T03:38:07.631Z,100921.06
2022-12-14T03:39:12.279Z,100921.41
2022-12-14T03:40:14.212Z,100925.92
2022-12-14T03:41:21.671Z,100923.27
2022-12-14T03:42:38.636Z,100927.27
2022-12-14T03:43:58.676Z,100930.77
2022-12-14T03:45:18.696Z,100932.20
2022-12-14T03:46:22.847Z,100927.41
2022-12-14T03:47:34.608Z,100927.25
2022-12-14T03:48:40.202Z,100926.17
2022-12-14T03:49:50.807Z,100928.16
2022-12-14T03:51:24.157Z,100926.85
2022-12-14T03:52:41.714Z,100927.73
2022-12-14T03:54:01.645Z,100930.08
2022-12-14T03:55:05.884Z,100936.95
2022-12-14T03:56:26.181Z,100937.92
2022-12-14T03:57:46.263Z,100939.64
2022-12-14T03:58:56.810Z,100944.81
2022-12-14T04:00:09.916Z,100942.13
2022-12-14T04:01:29.310Z,100939.06
2022-12-14T04:02:39.161Z,100939.16
2022-12-14T04:03:51.608Z,100936.59
2022-12-14T04:04:57.086Z,100937.19
2022-12-14T04:06:02.223Z,100933.59
2022-12-14T04:07:06.477Z,100937.30
2022-12-14T04:08:07.943Z,100935.10
2022-12-14T04:09:15.416Z,100934.83
2022-12-14T04:10:40.977Z,100932.29
2022-12-14T04:12:05.255Z,100934.13
2022-12-14T04:13:30.594Z,100933.70
2022-12-14T04:15:03.598Z,100932.33
2022-12-14T04:16:26.546Z,100930.52
2022-12-14T04:17:49.323Z,100931.97
2022-12-14T04:19:00.053Z,100933.98
2022-12-14T04:20:04.717Z,100931.86
2022-12-14T04:21:19.155Z,100932.44
2022-12-14T04:22:23.165Z,100935.80
2022-12-14T04:23:49.252Z,100935.20
2022-12-14T04:25:15.836Z,100932.54
2022-12-14T04:26:22.115Z,100932.23
2022-12-14T04:27:34.612Z,100934.52
2022-12-14T04:29:04.084Z,100931.80
2022-12-14T04:30:06.688Z,100928.98
2022-12-14T04:31:09.856Z,100926.55
2022-12-14T04:32:22.650Z,100925.76
2022-12-14T04:33:42.863Z,100926.04
2022-12-14T04:34:47.352Z,100923.89
2022-12-14T04:35:49.676Z,100922.56
2022-12-14T04:36:55.267Z,100923.16
2022-12-14T04:37:59.754Z,100922.77
2022-12-14T04:39:05.820Z,100919.24
2022-12-14T04:40:09.944Z,100917.21
2022-12-14T04:41:14.010Z,100916.83
2022-12-14T04:42:17.950Z,100914.20
2022-12-14T04:43:21.772Z,100915.95
2022-12-14T04:44:27.983Z,100914.05
2022-12-14T04:45:32.223Z,100912.60
2022-12-14T04:46:40.494Z,100911.23
2022-12-14T04:47:45.472Z,100910.17
2022-12-14T04:49:05.434Z,100911.39
2022-12-14T04:50:14.236Z,100909.15
2022-12-14T04:51:33.837Z,100913.23
2022-12-14T04:52:41.841Z,100914.48
2022-12-14T04:53:45.019Z,100912.91
2022-12-14T04:54:53.088Z,100912.27
2022-12-14T04:56:07.921Z,100913.71
2022-12-14T04:57:28.816Z,100913.20
2022-12-14T04:58:31.041Z,100911.86
2022-12-14T04:59:32.417Z,100916.11
2022-12-14T05:00:36.341Z,100919.44
2022-12-14T05:01:45.934Z,100917.20
2022-12-14T05:02:56.471Z,100916.67
2022-12-14T05:04:06.066Z,100915.32
2022-12-14T05:05:28.341Z,100914.94
2022-12-14T05:06:37.184Z,100916.86
2022-12-14T05:07:56.780Z,100913.05
2022-12-14T05:09:01.146Z,100912.96
2022-12-14T05:10:02.518Z,100910.63
2022-12-14T05:11:49.645Z,100905.60
2022-12-14T05:12:33.789Z,100903.39
2022-12-14T05:13:49.152Z,100904.59
2022-12-14T05:14:53.576Z,100903.05
2022-12-14T05:15:55.941Z,100902.54
2022-12-14T05:16:57.652Z,100897.38
2022-12-14T05:18:03.151Z,100897.23
2022-12-14T05:19:08.804Z,100894.71
2022-12-14T05:20:15.540Z,100897.80
2022-12-14T05:21:35.324Z,100895.64
2022-12-14T05:22:38.099Z,100894.38
2022-12-14T05:23:39.694Z,100891.75
2022-12-14T05:24:41.167Z,100886.15
2022-12-14T05:25:42.581Z,100890.77
2022-12-14T05:26:44.331Z,100890.85
2022-12-14T05:27:46.027Z,100888.52
2022-12-14T05:28:50.497Z,100886.36
2022-12-14T05:29:52.228Z,100887.98
2022-12-14T05:30:53.684Z,100887.76
2022-12-14T05:31:55.214Z,100881.70
2022-12-14T05:32:56.829Z,100881.99
2022-12-14T05:33:58.510Z,100881.55
2022-12-14T05:35:00.368Z,100878.59
2022-12-14T05:36:01.978Z,100879.48
2022-12-14T05:37:03.569Z,100879.96
2022-12-14T05:38:07.732Z,100881.85
2022-12-14T05:39:09.185Z,100883.30
2022-12-14T05:40:10.917Z,100881.29
2022-12-14T05:41:12.528Z,100878.61
2022-12-14T05:42:13.974Z,100877.41
2022-12-14T05:43:15.422Z,100879.70
2022-12-14T05:44:16.755Z,100881.98
2022-12-14T05:45:18.161Z,100884.95
2022-12-14T05:46:19.591Z,100886.50
2022-12-14T05:47:21.075Z,100883.84
2022-12-14T05:48:22.387Z,100888.25
2022-12-14T05:49:24.602Z,100887.14
2022-12-14T05:50:26.230Z,100889.23
2022-12-14T05:51:27.630Z,100892.48
2022-12-14T05:52:29.086Z,100892.13
2022-12-14T05:53:30.717Z,100890.86
2022-12-14T05:54:32.413Z,100893.79
2022-12-14T05:55:33.945Z,100893.93
2022-12-14T05:56:35.446Z,100896.48
2022-12-14T05:57:36.963Z,100893.90
2022-12-14T05:58:38.762Z,100897.05
2022-12-14T05:59:40.294Z,100898.59
2022-12-14T06:00:41.823Z,100896.05
2022-12-14T06:01:44.231Z,100899.04
2022-12-14T06:02:45.916Z,100897.27
2022-12-14T06:03:47.583Z,100896.70
2022-12-14T06:04:49.240Z,100900.14
2022-12-14T06:05:50.732Z,100895.38
2022-12-14T06:06:52.196Z,100893.98
2022-12-14T06:07:53.642Z,100891.64
2022-12-14T06:08:55.129Z,100888.05
2022-12-14T06:09:56.597Z,100889.89
2022-12-14T06:11:07.873Z,100890.25
2022-12-14T06:12:09.426Z,100892.59
2022-12-14T06:13:10.926Z,100892.89
2022-12-14T06:14:12.842Z,100884.77
2022-12-14T06:15:14.300Z,100886.85
2022-12-14T06:16:16.888Z,100886.44
2022-12-14T06:17:18.344Z,100889.41
2022-12-14T06:18:19.841Z,100884.52
2022-12-14T06:19:21.253Z,100887.45
2022-12-14T06:20:22.746Z,100884.81
2022-12-14T06:21:28.516Z,100888.06
2022-12-14T06:22:29.886Z,100889.11
2022-12-14T06:23:31.263Z,100888.94
2022-12-14T06:24:32.584Z,100883.95
2022-12-14T06:25:36.507Z,100885.20
2022-12-14T06:26:40.252Z,100883.60
2022-12-14T06:27:41.741Z,100884.19
2022-12-14T06:28:43.679Z,100883.13
2022-12-14T06:29:45.164Z,100882.12
2022-12-14T06:30:47.545Z,100884.26
2022-12-14T06:31:49.732Z,100880.63
2022-12-14T06:32:51.230Z,100879.70
2022-12-14T06:33:54.058Z,100879.22
2022-12-14T06:34:55.578Z,100882.23
2022-12-14T06:35:57.167Z,100883.02
2022-12-14T06:36:59.972Z,100879.27
2022-12-14T06:38:01.565Z,100886.56
2022-12-14T06:39:05.561Z,100884.58
2022-12-14T06:40:07.399Z,100888.56
2022-12-14T06:41:09.083Z,100889.27
2022-12-14T06:42:10.822Z,100891.27
2022-12-14T06:43:12.710Z,100887.91
2022-12-14T06:44:14.259Z,100889.67
2022-12-14T06:45:15.707Z,100890.38
2022-12-14T06:46:19.157Z,100890.39
2022-12-14T06:47:20.853Z,100889.12
2022-12-14T06:48:22.341Z,100888.85
2022-12-14T06:49:24.057Z,100890.13
2022-12-14T06:50:26.978Z,100888.70
2022-12-14T06:51:28.539Z,100893.27
2022-12-14T06:52:29.984Z,100891.98
2022-12-14T06:53:32.414Z,100892.69
2022-12-14T06:54:33.881Z,100891.40
2022-12-14T06:55:35.295Z,100892.84
2022-12-14T06:56:37.697Z,100895.65
2022-12-14T06:57:39.229Z,100896.75
2022-12-14T06:58:41.011Z,100893.86
2022-12-14T06:59:42.543Z,100898.65
2022-12-14T07:00:43.953Z,100896.59
